createdAt,value
2022-10-04T00:00:51.716Z,96974.34
2022-10-04T00:03:27.307Z,96968.94
2022-10-04T00:05:59.450Z,96982.66
2022-10-04T00:08:31.248Z,96975.66
2022-10-04T00:11:05.383Z,96977.56
2022-10-04T00:13:38.031Z,96976.47
2022-10-04T00:16:06.503Z,96978.09
2022-10-04T00:18:41.057Z,96974.59
2022-10-04T00:21:10.299Z,96964.66
2022-10-04T00:23:47.542Z,96974.88
2022-10-04T00:26:48.517Z,96965.75
2022-10-04T00:29:35.667Z,96967.09
2022-10-04T00:32:26.394Z,96969.22
2022-10-04T00:34:54.968Z,96972.72
2022-10-04T00:37:25.383Z,96980.00
2022-10-04T00:40:01.927Z,96980.00
2022-10-04T00:42:57.490Z,96972.75
2022-10-04T00:45:30.945Z,96969.78
2022-10-04T00:48:30.469Z,96966.03
2022-10-04T00:51:05.112Z,96956.06
2022-10-04T00:53:46.649Z,96957.97
2022-10-04T00:56:21.543Z,96955.56
2022-10-04T00:59:09.100Z,96960.13
2022-10-04T01:01:38.200Z,96952.88
2022-10-04T01:04:13.727Z,96954.47
2022-10-04T01:06:43.032Z,96946.13
2022-10-04T01:09:14.186Z,96944.81
2022-10-04T01:11:48.517Z,96933.28
2022-10-04T01:14:27.780Z,96941.31
2022-10-04T01:16:55.607Z,96937.03
2022-10-04T01:19:33.644Z,96931.91
2022-10-04T01:22:11.870Z,96937.03
2022-10-04T01:24:42.892Z,96929.50
2022-10-04T01:27:41.187Z,96917.97
2022-10-04T01:30:12.091Z,96916.88
2022-10-04T01:32:40.884Z,96921.19
2022-10-04T01:35:10.807Z,96915.81
2022-10-04T01:37:39.319Z,96910.72
2022-10-04T01:40:10.725Z,96910.16
2022-10-04T01:42:44.568Z,96910.44
2022-10-04T01:45:20.848Z,96909.66
2022-10-04T01:47:54.410Z,96906.09
2022-10-04T01:50:29.136Z,96904.50
2022-10-04T01:53:02.288Z,96899.41
2022-10-04T01:55:35.455Z,96891.06
2022-10-04T01:58:11.739Z,96892.97
2022-10-04T02:00:44.497Z,96896.72
2022-10-04T02:03:19.183Z,96887.84
2022-10-04T02:05:53.097Z,96889.47
2022-10-04T02:08:26.978Z,96896.16
2022-10-04T02:10:57.459Z,96896.16
2022-10-04T02:13:29.452Z,96903.94
2022-10-04T02:15:59.343Z,96895.88
2022-10-04T02:18:29.848Z,96901.81
2022-10-04T02:20:58.831Z,96903.41
2022-10-04T02:23:27.968Z,96893.75
2022-10-04T02:25:57.075Z,96899.34
2022-10-04T02:28:24.928Z,96890.22
2022-10-04T02:31:11.812Z,96883.25
2022-10-04T02:33:42.386Z,96881.88
2022-10-04T02:36:11.048Z,96890.47
2022-10-04T02:38:43.146Z,96889.41
2022-10-04T02:41:23.104Z,96887.00
2022-10-04T02:43:56.119Z,96888.59
2022-10-04T02:46:29.269Z,96888.59
2022-10-04T02:48:59.382Z,96880.84
2022-10-04T02:51:33.305Z,96881.66
2022-10-04T02:54:11.383Z,96875.22
2022-10-04T02:56:40.983Z,96870.63
2022-10-04T02:59:09.018Z,96869.56
2022-10-04T03:01:50.125Z,96877.59
2022-10-04T03:04:20.987Z,96866.88
2022-10-04T03:06:48.886Z,96876.78
2022-10-04T03:09:18.329Z,96876.28
2022-10-04T03:11:49.620Z,96870.34
2022-10-04T03:14:21.215Z,96871.44
2022-10-04T03:16:53.711Z,96861.78
2022-10-04T03:19:23.779Z,96869.25
2022-10-04T03:21:58.732Z,96867.09
2022-10-04T03:24:31.631Z,96862.25
2022-10-04T03:27:03.821Z,96861.19
2022-10-04T03:29:34.129Z,96864.38
2022-10-04T03:32:04.031Z,96860.66
2022-10-04T03:34:37.624Z,96865.47
2022-10-04T03:37:09.006Z,96856.63
2022-10-04T03:39:42.045Z,96859.28
2022-10-04T03:42:16.156Z,96864.38
2022-10-04T03:44:46.390Z,96871.38
2022-10-04T03:47:17.845Z,96871.91
2022-10-04T03:49:50.829Z,96871.91
2022-10-04T03:52:22.380Z,96874.06
2022-10-04T03:54:52.638Z,96867.84
2022-10-04T03:57:22.759Z,96866.53
2022-10-04T03:59:51.294Z,96856.34
2022-10-04T04:02:27.961Z,96848.84
2022-10-04T04:05:05.672Z,96846.41
2022-10-04T04:07:39.238Z,96841.03
2022-10-04T04:10:17.481Z,96840.78
2022-10-04T04:12:50.984Z,96839.16
2022-10-04T04:15:19.185Z,96835.41
2022-10-04T04:17:49.499Z,96836.47
2022-10-04T04:20:22.347Z,96838.34
2022-10-04T04:22:59.098Z,96834.31
2022-10-04T04:25:29.576Z,96835.34
2022-10-04T04:28:06.422Z,96838.31
2022-10-04T04:30:38.067Z,96844.75
2022-10-04T04:33:16.641Z,96848.22
2022-10-04T04:35:46.655Z,96850.63
2022-10-04T04:38:21.806Z,96857.34
2022-10-04T04:40:50.403Z,96868.56
2022-10-04T04:43:20.953Z,96881.44
2022-10-04T04:46:08.455Z,96878.47
2022-10-04T04:48:38.019Z,96886.78
2022-10-04T04:51:06.402Z,96887.59
2022-10-04T04:53:34.283Z,96877.38
2022-10-04T04:56:05.231Z,96884.88
2022-10-04T04:58:37.776Z,96879.47
2022-10-04T05:01:07.682Z,96878.13
2022-10-04T05:03:35.989Z,96883.78
2022-10-04T05:06:04.771Z,96880.53
2022-10-04T05:08:40.302Z,96886.97
2022-10-04T05:11:16.339Z,96870.38
2022-10-04T05:13:50.126Z,96863.66
2022-10-04T05:16:20.965Z,96856.41
2022-10-04T05:18:49.416Z,96862.31
2022-10-04T05:21:25.104Z,96851.59
2022-10-04T05:23:53.605Z,96845.97
2022-10-04T05:26:27.668Z,96844.09
2022-10-04T05:29:03.011Z,96845.19
2022-10-04T05:31:46.285Z,96853.72
2022-10-04T05:34:22.747Z,96844.59
2022-10-04T05:37:25.292Z,96854.53
2022-10-04T05:40:03.953Z,96859.88
2022-10-04T05:42:39.066Z,96855.91
2022-10-04T05:45:18.349Z,96856.19
2022-10-04T05:47:48.887Z,96869.34
2022-10-04T05:50:21.167Z,96868.28
2022-10-04T05:52:52.268Z,96868.06
2022-10-04T05:55:29.169Z,96869.69
2022-10-04T05:58:30.887Z,96872.94
2022-10-04T06:01:25.227Z,96881.53
2022-10-04T06:04:11.313Z,96879.66
2022-10-04T06:06:42.276Z,96881.56
2022-10-04T06:09:18.867Z,96883.22
2022-10-04T06:12:02.108Z,96883.22
2022-10-04T06:14:54.830Z,96882.16
2022-10-04T06:17:48.123Z,96882.72
2022-10-04T06:20:52.807Z,96883.25
2022-10-04T06:23:21.631Z,96875.75
2022-10-04T06:25:53.673Z,96869.06
2022-10-04T06:28:26.043Z,96872.00
2022-10-04T06:31:30.899Z,96869.88
2022-10-04T06:34:22.019Z,96861.31
2022-10-04T06:37:05.591Z,96865.91
2022-10-04T06:39:59.164Z,96877.41
2022-10-04T06:43:01.864Z,96868.81
2022-10-04T06:45:42.709Z,96867.19
2022-10-04T06:48:27.530Z,96873.63
2022-10-04T06:51:07.665Z,96877.13
2022-10-04T06:53:46.663Z,96883.78
2022-10-04T06:56:32.597Z,96883.25
2022-10-04T06:59:28.408Z,96890.75
2022-10-04T07:01:59.287Z,96889.13
2022-10-04T07:04:56.164Z,96880.50
2022-10-04T07:07:37.859Z,96869.97
2022-10-04T07:10:30.968Z,96874.72
2022-10-04T07:13:12.529Z,96871.72
2022-10-04T07:15:48.620Z,96874.06
2022-10-04T07:18:23.963Z,96868.06
2022-10-04T07:21:00.235Z,96867.44
2022-10-04T07:23:33.320Z,96867.91
2022-10-04T07:26:06.895Z,96875.63
2022-10-04T07:28:58.357Z,96868.28
2022-10-04T07:31:29.123Z,96880.28
2022-10-04T07:34:01.239Z,96874.78
2022-10-04T07:36:38.979Z,96886.22
2022-10-04T07:39:14.787Z,96886.06
2022-10-04T07:41:49.902Z,96887.81
2022-10-04T07:44:28.142Z,96883.63
2022-10-04T07:47:01.633Z,96894.81
2022-10-04T07:49:31.423Z,96883.09
2022-10-04T07:52:25.498Z,96886.19
2022-10-04T07:55:03.736Z,96896.88
2022-10-04T07:57:41.727Z,96897.84
2022-10-04T08:00:17.471Z,96898.78
2022-10-04T08:02:57.424Z,96898.66
2022-10-04T08:05:30.270Z,96906.59
2022-10-04T08:08:29.822Z,96911.34
2022-10-04T08:11:17.210Z,96911.78
2022-10-04T08:13:54.439Z,96917.03
2022-10-04T08:16:35.570Z,96917.97
2022-10-04T08:19:25.515Z,96925.94
2022-10-04T08:22:01.822Z,96931.19
2022-10-04T08:24:36.483Z,96925.63
2022-10-04T08:27:27.406Z,96914.63
2022-10-04T08:30:13.059Z,96929.09
2022-10-04T08:33:01.897Z,96927.88
2022-10-04T08:35:36.475Z,96925.63
2022-10-04T08:38:26.891Z,96922.72
2022-10-04T08:41:39.654Z,96913.03
2022-10-04T08:44:38.345Z,96921.97
2022-10-04T08:47:52.211Z,96924.16
2022-10-04T08:50:55.365Z,96919.03
2022-10-04T08:53:58.311Z,96916.75
2022-10-04T08:56:45.341Z,96910.50
2022-10-04T08:59:50.574Z,96907.59
2022-10-04T09:02:44.303Z,96902.41
2022-10-04T09:05:53.444Z,96900.81
2022-10-04T09:08:56.327Z,96886.34
2022-10-04T09:11:45.120Z,96889.94
2022-10-04T09:14:50.066Z,96889.22
2022-10-04T09:17:23.332Z,96882.53
2022-10-04T09:20:13.959Z,96877.38
2022-10-04T09:22:50.037Z,96879.66
2022-10-04T09:25:41.736Z,96887.22
2022-10-04T09:28:39.442Z,96883.94
2022-10-04T09:31:32.341Z,96893.91
2022-10-04T09:34:17.332Z,96887.88
2022-10-04T09:37:10.507Z,96883.78
2022-10-04T09:40:15.212Z,96886.22
2022-10-04T09:43:04.737Z,96888.66
2022-10-04T09:45:43.403Z,96886.59
2022-10-04T09:48:34.066Z,96896.09
2022-10-04T09:51:29.391Z,96904.28
2022-10-04T09:54:12.659Z,96895.97
2022-10-04T09:57:16.768Z,96903.84
2022-10-04T10:00:24.996Z,96905.28
2022-10-04T10:03:24.407Z,96915.22
2022-10-04T10:06:11.246Z,96920.34
2022-10-04T10:08:55.463Z,96916.81
2022-10-04T10:11:50.723Z,96912.19
2022-10-04T10:14:48.179Z,96921.16
2022-10-04T10:17:25.428Z,96922.75
2022-10-04T10:20:32.897Z,96927.53
2022-10-04T10:23:18.223Z,96935.06
2022-10-04T10:25:59.125Z,96934.59
2022-10-04T10:29:04.220Z,96927.88
2022-10-04T10:32:02.215Z,96931.94
2022-10-04T10:34:56.964Z,96927.59
2022-10-04T10:37:36.874Z,96932.88
2022-10-04T10:40:23.907Z,96930.31
2022-10-04T10:43:18.459Z,96931.47
2022-10-04T10:46:04.514Z,96937.84
2022-10-04T10:48:53.960Z,96943.69
2022-10-04T10:51:50.143Z,96944.03
2022-10-04T10:55:07.820Z,96934.59
2022-10-04T10:57:58.595Z,96932.81
2022-10-04T11:00:46.189Z,96940.03
2022-10-04T11:03:40.906Z,96941.28
2022-10-04T11:06:15.364Z,96932.00
2022-10-04T11:09:25.333Z,96925.03
2022-10-04T11:12:24.379Z,96932.16
2022-10-04T11:15:23.545Z,96936.69
2022-10-04T11:18:36.664Z,96916.34
2022-10-04T11:21:47.325Z,96916.84
2022-10-04T11:24:50.568Z,96902.25
2022-10-04T11:27:30.435Z,96898.28
2022-10-04T11:30:24.732Z,96898.69
2022-10-04T11:33:30.714Z,96889.94
2022-10-04T11:36:27.171Z,96889.78
2022-10-04T11:39:34.615Z,96892.78
2022-10-04T11:42:18.216Z,96883.84
2022-10-04T11:45:09.925Z,96886.03
2022-10-04T11:47:49.256Z,96884.34
2022-10-04T11:50:39.896Z,96883.06
2022-10-04T11:53:34.668Z,96881.88
2022-10-04T11:56:34.056Z,96880.00
2022-10-04T11:59:15.306Z,96876.69
2022-10-04T12:02:32.133Z,96871.84
2022-10-04T12:05:23.370Z,96866.63
2022-10-04T12:08:01.375Z,96871.72
2022-10-04T12:10:34.897Z,96866.69
2022-10-04T12:13:21.733Z,96861.56
2022-10-04T12:16:05.451Z,96858.63
2022-10-04T12:19:01.755Z,96850.94
2022-10-04T12:21:50.374Z,96851.06
2022-10-04T12:24:48.179Z,96851.16
2022-10-04T12:27:42.018Z,96846.50
2022-10-04T12:30:23.849Z,96843.38
2022-10-04T12:33:02.539Z,96843.91
2022-10-04T12:35:41.420Z,96839.88
2022-10-04T12:38:27.675Z,96830.75
2022-10-04T12:41:05.543Z,96830.88
2022-10-04T12:43:41.846Z,96820.53
2022-10-04T12:46:24.997Z,96829.38
2022-10-04T12:49:05.278Z,96827.88
2022-10-04T12:51:43.248Z,96831.81
2022-10-04T12:54:31.455Z,96828.34
2022-10-04T12:57:20.119Z,96826.38
2022-10-04T12:59:58.200Z,96829.50
2022-10-04T13:02:54.612Z,96822.84
2022-10-04T13:05:28.006Z,96825.00
2022-10-04T13:08:08.608Z,96819.66
2022-10-04T13:10:49.607Z,96818.16
2022-10-04T13:13:36.069Z,96817.19
2022-10-04T13:19:14.696Z,96825.94
2022-10-04T13:22:09.629Z,96811.16
2022-10-04T13:24:58.923Z,96808.63
2022-10-04T13:27:41.413Z,96809.31
2022-10-04T13:30:23.306Z,96799.47
2022-10-04T13:33:01.281Z,96805.31
2022-10-04T13:35:37.015Z,96810.81
2022-10-04T13:38:32.813Z,96814.28
2022-10-04T13:41:14.156Z,96811.00
2022-10-04T13:44:01.360Z,96801.97
2022-10-04T13:46:39.133Z,96799.31
2022-10-04T13:49:24.103Z,96806.84
2022-10-04T13:52:28.234Z,96816.06
2022-10-04T13:55:30.090Z,96819.09
2022-10-04T13:58:11.303Z,96820.19
2022-10-04T14:00:56.654Z,96822.06
2022-10-04T14:03:46.570Z,96819.13
2022-10-04T14:06:51.003Z,96822.41
2022-10-04T14:09:46.739Z,96822.53
2022-10-04T14:12:45.753Z,96822.28
2022-10-04T14:15:59.367Z,96823.34
2022-10-04T14:19:06.970Z,96828.69
2022-10-04T14:22:04.721Z,96823.88
2022-10-04T14:24:54.311Z,96827.59
2022-10-04T14:27:54.892Z,96831.66
2022-10-04T14:30:25.512Z,96831.94
2022-10-04T14:33:18.286Z,96836.47
2022-10-04T14:35:53.208Z,96835.34
2022-10-04T14:38:47.501Z,96832.06
2022-10-04T14:41:46.450Z,96837.72
2022-10-04T14:44:55.414Z,96843.09
2022-10-04T14:47:42.876Z,96846.97
2022-10-04T14:50:27.823Z,96840.19
2022-10-04T14:53:10.431Z,96844.41
2022-10-04T14:55:57.492Z,96843.16
2022-10-04T14:58:34.934Z,96835.66
2022-10-04T15:01:21.736Z,96839.91
2022-10-04T15:04:11.843Z,96838.09
2022-10-04T15:06:48.766Z,96835.41
2022-10-04T15:09:42.464Z,96833.41
2022-10-04T15:13:09.829Z,96833.69
2022-10-04T15:15:52.127Z,96828.00
2022-10-04T15:18:29.051Z,96830.19
2022-10-04T15:21:02.363Z,96834.31
2022-10-04T15:23:37.751Z,96833.72
2022-10-04T15:26:33.599Z,96830.53
2022-10-04T15:29:15.848Z,96825.75
2022-10-04T15:31:55.249Z,96823.72
2022-10-04T15:34:34.255Z,96823.25
2022-10-04T15:37:09.890Z,96823.50
2022-10-04T15:40:16.566Z,96821.66
2022-10-04T15:43:02.295Z,96810.84
2022-10-04T15:45:53.883Z,96810.50
2022-10-04T15:48:50.571Z,96821.78
2022-10-04T15:51:36.767Z,96809.56
2022-10-04T15:54:17.411Z,96815.00
2022-10-04T15:56:55.476Z,96808.25
2022-10-04T15:59:39.046Z,96808.09
2022-10-04T16:02:41.659Z,96809.41
2022-10-04T16:05:22.098Z,96794.78
2022-10-04T16:08:19.661Z,96797.00
2022-10-04T16:11:14.881Z,96791.34
2022-10-04T16:13:59.238Z,96789.31
2022-10-04T16:16:51.852Z,96787.53
2022-10-04T16:19:40.771Z,96784.59
2022-10-04T16:22:15.796Z,96790.75
2022-10-04T16:24:46.826Z,96783.47
2022-10-04T16:27:38.406Z,96785.50
2022-10-04T16:30:27.618Z,96783.31
2022-10-04T16:33:36.808Z,96782.22
2022-10-04T16:36:11.777Z,96785.44
2022-10-04T16:39:02.568Z,96775.53
2022-10-04T16:41:39.996Z,96779.91
2022-10-04T16:44:22.941Z,96775.44
2022-10-04T16:46:53.125Z,96783.94
2022-10-04T16:49:28.328Z,96783.78
2022-10-04T16:52:19.794Z,96779.97
2022-10-04T16:55:22.002Z,96772.75
2022-10-04T16:58:23.010Z,96779.94
2022-10-04T17:00:52.788Z,96776.41
2022-10-04T17:03:30.114Z,96782.28
2022-10-04T17:06:14.104Z,96780.97
2022-10-04T17:08:49.864Z,96777.44
2022-10-04T17:11:48.889Z,96784.13
2022-10-04T17:14:48.191Z,96782.31
2022-10-04T17:17:24.180Z,96784.22
2022-10-04T17:19:57.362Z,96790.56
2022-10-04T17:22:35.885Z,96789.59
2022-10-04T17:25:19.632Z,96791.84
2022-10-04T17:27:54.894Z,96791.19
2022-10-04T17:30:24.685Z,96786.50
2022-10-04T17:33:24.896Z,96795.38
2022-10-04T17:36:25.919Z,96803.94
2022-10-04T17:39:08.379Z,96800.16
2022-10-04T17:41:52.899Z,96804.44
2022-10-04T17:44:45.222Z,96805.28
2022-10-04T17:47:22.911Z,96798.66
2022-10-04T17:50:18.048Z,96798.72
2022-10-04T17:53:07.558Z,96801.34
2022-10-04T17:55:46.823Z,96799.28
2022-10-04T17:58:17.673Z,96796.72
2022-10-04T18:00:59.625Z,96797.84
2022-10-04T18:03:37.151Z,96802.78
2022-10-04T18:06:16.441Z,96795.78
2022-10-04T18:08:51.459Z,96794.16
2022-10-04T18:11:25.922Z,96804.41
2022-10-04T18:14:01.776Z,96805.44
2022-10-04T18:16:33.541Z,96812.19
2022-10-04T18:19:24.250Z,96819.41
2022-10-04T18:21:54.136Z,96814.13
2022-10-04T18:24:24.100Z,96832.16
2022-10-04T18:27:00.112Z,96824.84
2022-10-04T18:30:00.525Z,96827.75
2022-10-04T18:32:35.572Z,96825.53
2022-10-04T18:35:21.688Z,96818.91
2022-10-04T18:37:50.757Z,96820.81
2022-10-04T18:40:21.378Z,96818.31
2022-10-04T18:42:57.053Z,96814.03
2022-10-04T18:45:28.261Z,96822.63
2022-10-04T18:47:59.817Z,96811.00
2022-10-04T18:50:35.301Z,96807.50
2022-10-04T18:53:32.470Z,96813.81
2022-10-04T18:56:01.844Z,96821.13
2022-10-04T18:59:02.605Z,96823.03
2022-10-04T19:02:00.925Z,96818.09
2022-10-04T19:04:38.941Z,96812.69
2022-10-04T19:07:12.509Z,96805.09
2022-10-04T19:10:18.239Z,96800.25
2022-10-04T19:12:57.704Z,96809.53
2022-10-04T19:15:41.075Z,96812.22
2022-10-04T19:18:26.255Z,96812.75
2022-10-04T19:21:04.311Z,96808.31
2022-10-04T19:23:42.706Z,96812.94
2022-10-04T19:26:31.672Z,96807.75
2022-10-04T19:29:13.268Z,96809.03
2022-10-04T19:31:54.226Z,96824.22
2022-10-04T19:34:33.334Z,96819.78
2022-10-04T19:37:10.978Z,96819.06
2022-10-04T19:39:49.954Z,96825.13
2022-10-04T19:42:24.417Z,96828.00
2022-10-04T19:45:14.523Z,96836.78
2022-10-04T19:47:49.235Z,96840.13
2022-10-04T19:50:23.914Z,96839.03
2022-10-04T19:52:58.224Z,96847.13
2022-10-04T19:55:39.350Z,96847.69
2022-10-04T19:58:17.904Z,96848.28
2022-10-04T20:00:45.729Z,96849.34
2022-10-04T20:03:13.968Z,96854.75
2022-10-04T20:05:47.003Z,96852.59
2022-10-04T20:08:18.051Z,96853.16
2022-10-04T20:10:45.825Z,96854.75
2022-10-04T20:13:23.396Z,96855.59
2022-10-04T20:15:53.595Z,96860.13
2022-10-04T20:18:58.147Z,96853.38
2022-10-04T20:21:33.128Z,96855.13
2022-10-04T20:24:02.388Z,96853.78
2022-10-04T20:26:54.554Z,96851.06
2022-10-04T20:30:01.718Z,96855.84
2022-10-04T20:32:55.266Z,96856.88
2022-10-04T20:36:12.048Z,96853.63
2022-10-04T20:39:02.739Z,96855.28
2022-10-04T20:42:22.423Z,96862.28
2022-10-04T20:45:22.275Z,96859.34
2022-10-04T20:47:52.190Z,96853.16
2022-10-04T20:50:25.676Z,96847.75
2022-10-04T20:52:57.058Z,96851.06
2022-10-04T20:55:28.606Z,96849.16
2022-10-04T20:57:58.949Z,96846.72
2022-10-04T21:00:28.866Z,96856.72
2022-10-04T21:03:10.851Z,96853.53
2022-10-04T21:05:39.442Z,96844.97
2022-10-04T21:08:24.129Z,96848.25
2022-10-04T21:11:19.428Z,96847.97
2022-10-04T21:13:54.166Z,96855.75
2022-10-04T21:16:46.858Z,96848.75
2022-10-04T21:19:48.491Z,96849.06
2022-10-04T21:22:39.462Z,96867.22
2022-10-04T21:25:39.714Z,96865.72
2022-10-04T21:28:35.945Z,96867.75
2022-10-04T21:31:04.944Z,96880.75
2022-10-04T21:33:33.678Z,96868.97
2022-10-04T21:36:01.450Z,96881.22
2022-10-04T21:38:29.518Z,96871.50
2022-10-04T21:40:57.638Z,96876.09
2022-10-04T21:43:25.500Z,96878.03
2022-10-04T21:45:54.706Z,96872.47
2022-10-04T21:48:23.300Z,96891.38
2022-10-04T21:50:52.456Z,96886.00
2022-10-04T21:53:20.280Z,96888.97
2022-10-04T21:55:48.295Z,96885.44
2022-10-04T21:58:16.015Z,96891.16
2022-10-04T22:00:43.817Z,96904.56
2022-10-04T22:03:13.049Z,96905.97
2022-10-04T22:05:40.704Z,96902.47
2022-10-04T22:08:08.371Z,96900.56
2022-10-04T22:10:36.072Z,96902.72
2022-10-04T22:13:03.759Z,96897.34
2022-10-04T22:15:31.511Z,96904.38
2022-10-04T22:17:59.183Z,96901.94
2022-10-04T22:20:28.675Z,96908.66
2022-10-04T22:22:57.495Z,96901.34
2022-10-04T22:25:27.448Z,96901.09
2022-10-04T22:27:55.564Z,96896.78
2022-10-04T22:30:26.264Z,96887.59
2022-10-04T22:32:56.068Z,96892.78
2022-10-04T22:35:23.960Z,96887.16
2022-10-04T22:37:53.281Z,96898.78
2022-10-04T22:40:23.287Z,96894.47
2022-10-04T22:42:53.562Z,96895.03
2022-10-04T22:45:24.236Z,96890.44
2022-10-04T22:47:52.586Z,96887.47
2022-10-04T22:50:28.876Z,96890.41
2022-10-04T22:52:58.112Z,96886.09
2022-10-04T22:55:26.103Z,96888.81
2022-10-04T22:57:53.924Z,96894.69
2022-10-04T23:00:21.648Z,96888.31
2022-10-04T23:02:49.869Z,96899.47
2022-10-04T23:05:19.016Z,96891.13
2022-10-04T23:07:48.071Z,96882.03
2022-10-04T23:10:19.649Z,96890.97
2022-10-04T23:12:48.945Z,96895.03
2022-10-04T23:15:19.467Z,96888.03
2022-10-04T23:17:54.192Z,96889.66
2022-10-04T23:20:22.438Z,96895.25
2022-10-04T23:22:52.036Z,96891.22
2022-10-04T23:25:24.376Z,96887.19
2022-10-04T23:27:52.146Z,96890.41
2022-10-04T23:30:22.610Z,96887.97
2022-10-04T23:32:52.916Z,96891.22
2022-10-04T23:35:23.277Z,96888.03
2022-10-04T23:37:51.337Z,96880.00
2022-10-04T23:40:22.887Z,96870.84
2022-10-04T23:42:54.568Z,96875.41
2022-10-04T23:45:24.487Z,96874.56
2022-10-04T23:47:56.085Z,96875.66
2022-10-04T23:50:28.353Z,96867.88
2022-10-04T23:53:02.340Z,96875.13
2022-10-04T23:55:34.218Z,96865.19
2022-10-04T23:58:02.508Z,96859.50
